Time;durP1;ratioP1;P1;durP2;ratioP2;P2;SDS_P1;SDS_P2;PMS_P1;PMS_P2;Temp;Humidity;BMP_temperature;BMP_pressure;BME280_temperature;BME280_humidity;BME280_pressure;Samples;Min_cycle;Max_cycle;Signal;HPM_P1;HPM_P2
2021/01/04 00:01:11;;;;;;;11.27;7.60;;;;;;;0.74;100.00;100851.53;4979006;28;20043;-90
2021/01/04 00:03:40;;;;;;;11.85;7.90;;;;;;;0.67;100.00;100854.38;4980017;28;20046;-90
2021/01/04 00:06:34;;;;;;;11.73;7.53;;;;;;;0.31;100.00;100851.88;4982849;28;20054;-90
2021/01/04 00:09:19;;;;;;;10.07;7.13;;;;;;;0.53;100.00;100852.56;4955477;28;20058;-90
2021/01/04 00:11:54;;;;;;;10.38;7.88;;;;;;;0.34;100.00;100842.88;4973888;28;20070;-90
2021/01/04 00:14:52;;;;;;;11.93;7.47;;;;;;;0.68;100.00;100847.69;4996962;28;20139;-92
2021/01/04 00:17:56;;;;;;;9.40;7.18;;;;;;;0.96;100.00;100850.41;4963068;28;20043;-90
2021/01/04 00:20:47;;;;;;;8.82;7.03;;;;;;;0.60;100.00;100844.69;4990591;28;20042;-90
2021/01/04 00:23:37;;;;;;;10.70;7.25;;;;;;;0.70;100.00;100852.09;4975087;28;20062;-90
2021/01/04 00:26:28;;;;;;;11.25;7.07;;;;;;;0.69;100.00;100842.78;4972229;28;20070;-89
2021/01/04 00:28:56;;;;;;;8.65;6.68;;;;;;;0.91;100.00;100842.53;4985682;28;20069;-90
2021/01/04 00:31:36;;;;;;;8.85;6.72;;;;;;;0.59;100.00;100837.88;4992591;28;20034;-90
2021/01/04 00:34:17;;;;;;;9.38;6.60;;;;;;;0.85;100.00;100846.31;4979667;28;20058;-90
2021/01/04 00:37:26;;;;;;;11.70;7.38;;;;;;;0.97;100.00;100845.50;4974945;28;20466;-91
2021/01/04 00:40:02;;;;;;;10.38;7.63;;;;;;;0.62;100.00;100840.59;4976357;28;20059;-90
2021/01/04 00:42:49;;;;;;;9.70;7.13;;;;;;;0.72;100.00;100842.97;4977094;28;20050;-89
2021/01/04 00:45:27;;;;;;;10.65;7.25;;;;;;;0.58;100.00;100846.19;4970361;28;20047;-91
2021/01/04 00:48:31;;;;;;;10.52;6.65;;;;;;;0.90;100.00;100850.88;4973156;28;20114;-87
2021/01/04 00:51:31;;;;;;;9.77;6.90;;;;;;;0.51;100.00;100846.56;4969866;28;20125;-88
2021/01/04 00:54:00;;;;;;;10.13;6.93;;;;;;;0.42;100.00;100843.44;4968307;28;20058;-88
2021/01/04 00:57:01;;;;;;;8.18;6.40;;;;;;;0.41;100.00;100844.16;4985367;28;20057;-88
2021/01/04 00:59:46;;;;;;;10.02;6.85;;;;;;;0.92;100.00;100840.91;4961514;28;20043;-90
2021/01/04 01:02:40;;;;;;;10.18;7.18;;;;;;;0.55;100.00;100843.47;4972016;28;20054;-88
2021/01/04 01:05:25;;;;;;;9.20;6.50;;;;;;;0.73;100.00;100846.34;4967731;28;20153;-89
2021/01/04 01:07:55;;;;;;;9.90;7.55;;;;;;;0.41;100.00;100847.56;4975193;28;20047;-88
2021/01/04 01:10:25;;;;;;;9.85;7.13;;;;;;;0.80;100.00;100843.50;4968567;28;20093;-89
2021/01/04 01:13:14;;;;;;;11.05;7.03;;;;;;;0.70;100.00;100844.53;4979294;28;20050;-91
2021/01/04 01:16:01;;;;;;;11.48;7.22;;;;;;;0.85;100.00;100846.31;4975815;28;20495;-90
2021/01/04 01:18:30;;;;;;;11.07;7.15;;;;;;;0.96;100.00;100847.91;4977390;28;20078;-91
2021/01/04 01:20:57;;;;;;;11.10;7.40;;;;;;;0.93;100.00;100845.19;4959469;28;20046;-90
2021/01/04 01:23:26;;;;;;;12.05;7.55;;;;;;;0.54;100.00;100841.72;4974666;28;20105;-90
2021/01/04 01:26:17;;;;;;;9.18;6.60;;;;;;;0.50;100.00;100843.16;4981167;28;20072;-91
2021/01/04 01:29:14;;;;;;;9.38;6.75;;;;;;;0.80;100.00;100853.56;4973668;28;20049;-91
2021/01/04 01:31:58;;;;;;;;;;;;;;;0.63;100.00;100854.94;4974175;28;20508;-91
2021/01/04 01:34:37;;;;;;;9.30;6.60;;;;;;;0.73;100.00;100856.44;4993557;28;20016;-89
2021/01/04 01:37:18;;;;;;;8.25;6.47;;;;;;;0.94;100.00;100855.38;4972836;28;20059;-89
2021/01/04 01:40:12;;;;;;;8.82;6.72;;;;;;;1.15;99.69;100860.94;4978808;28;20126;-90
2021/01/04 01:42:57;;;;;;;8.93;6.35;;;;;;;1.06;98.97;100849.38;5005824;28;20054;-90
2021/01/04 01:45:39;;;;;;;8.55;6.18;;;;;;;1.04;100.00;100848.41;4981936;28;20426;-89
2021/01/04 01:48:23;;;;;;;10.20;7.10;;;;;;;0.58;100.00;100856.28;4977207;28;20169;-89
2021/01/04 01:51:02;;;;;;;9.80;7.20;;;;;;;0.68;100.00;100850.22;4998496;28;20050;-90
2021/01/04 01:53:40;;;;;;;10.18;7.20;;;;;;;0.62;100.00;100854.84;4989165;28;20133;-90
2021/01/04 01:56:17;;;;;;;10.88;7.30;;;;;;;0.38;100.00;100856.56;4954544;28;20058;-91
2021/01/04 01:58:46;;;;;;;11.30;7.30;;;;;;;0.71;100.00;100858.88;4981332;28;20047;-90
2021/01/04 02:01:22;;;;;;;9.02;6.82;;;;;;;0.77;100.00;100851.72;4978010;28;20114;-90
2021/01/04 02:04:06;;;;;;;10.00;7.40;;;;;;;0.41;100.00;100856.75;4990348;28;20038;-88
2021/01/04 02:06:40;;;;;;;10.98;8.35;;;;;;;0.44;100.00;100852.81;4974310;28;20042;-90
2021/01/04 02:09:27;;;;;;;11.18;7.75;;;;;;;0.41;100.00;100850.09;4972165;28;20058;-91
2021/01/04 02:12:12;;;;;;;9.68;7.13;;;;;;;0.87;100.00;100857.38;4972241;28;20096;-91
2021/01/04 02:15:05;;;;;;;9.43;7.13;;;;;;;0.59;100.00;100859.66;4966825;28;20057;-91
2021/01/04 02:18:00;;;;;;;11.10;7.57;;;;;;;0.53;100.00;100859.25;4972167;28;20129;-91
2021/01/04 02:20:41;;;;;;;10.05;7.50;;;;;;;0.61;100.00;100863.19;4980196;28;20050;-92
2021/01/04 02:24:06;;;;;;;8.15;7.05;;;;;;;0.64;100.00;100850.78;4953259;28;20051;-91
2021/01/04 02:26:35;;;;;;;10.27;7.15;;;;;;;0.61;100.00;100859.03;4958458;28;20121;-91
2021/01/04 02:29:03;;;;;;;9.30;6.85;;;;;;;0.76;100.00;100860.03;4981827;28;20050;-90
2021/01/04 02:31:32;;;;;;;10.23;7.30;;;;;;;0.92;100.00;100851.84;4982562;28;20395;-88
2021/01/04 02:34:01;;;;;;;9.35;7.43;;;;;;;0.70;100.00;100852.09;4968149;28;20050;-89
2021/01/04 02:36:32;;;;;;;11.00;7.43;;;;;;;0.37;100.00;100852.28;4985186;28;20050;-88
2021/01/04 02:39:08;;;;;;;9.23;7.63;;;;;;;0.90;100.00;100860.09;4974105;28;20052;-89
2021/01/04 02:41:53;;;;;;;11.75;7.60;;;;;;;0.58;100.00;100857.94;4974468;28;20035;-89
2021/01/04 02:44:25;;;;;;;10.98;8.27;;;;;;;0.42;100.00;100853.50;4970768;28;20051;-89
2021/01/04 02:47:09;;;;;;;10.55;7.72;;;;;;;0.97;100.00;100859.72;4982910;28;20065;-90
2021/01/04 02:50:02;;;;;;;11.77;7.53;;;;;;;0.52;100.00;100858.41;4978437;28;20096;-90
2021/01/04 02:53:02;;;;;;;9.82;7.68;;;;;;;0.69;100.00;100857.00;4970685;28;20084;-90
2021/01/04 02:56:19;;;;;;;9.82;6.97;;;;;;;0.94;100.00;100860.41;4975144;28;20821;-90
2021/01/04 02:59:12;;;;;;;10.10;7.78;;;;;;;0.65;100.00;100863.50;4979270;28;20054;-90
2021/01/04 03:01:56;;;;;;;10.32;7.78;;;;;;;0.74;100.00;100864.13;4983460;28;20073;-90
2021/01/04 03:04:24;;;;;;;10.55;7.72;;;;;;;0.73;100.00;100858.97;4961582;28;20038;-88
2021/01/04 03:06:57;;;;;;;13.13;8.13;;;;;;;0.41;100.00;100857.63;4983717;28;20053;-89
2021/01/04 03:09:28;;;;;;;10.40;7.38;;;;;;;0.69;100.00;100865.47;4982686;28;20126;-89
2021/01/04 03:11:56;;;;;;;13.15;8.05;;;;;;;0.81;100.00;100857.84;4978865;28;20058;-89
2021/01/04 03:14:29;;;;;;;12.30;8.05;;;;;;;0.82;100.00;100864.63;4978209;28;20474;-88
2021/01/04 03:17:12;;;;;;;12.25;8.90;;;;;;;0.47;100.00;100862.25;4976065;28;20054;-88
2021/01/04 03:19:43;;;;;;;11.55;7.70;;;;;;;0.62;100.00;100859.88;4971340;28;20109;-86
2021/01/04 03:22:14;;;;;;;10.73;7.95;;;;;;;0.79;100.00;100866.06;4970643;28;20396;-90
2021/01/04 03:24:46;;;;;;;11.52;7.70;;;;;;;0.91;100.00;100866.88;4974214;28;20065;-89
2021/01/04 03:27:16;;;;;;;12.02;7.88;;;;;;;0.71;100.00;100866.44;5000648;28;20382;-90
2021/01/04 03:29:43;;;;;;;11.65;7.68;;;;;;;0.95;100.00;100867.19;4997627;28;20057;-91
2021/01/04 03:32:28;;;;;;;9.18;7.80;;;;;;;0.95;100.00;100864.66;4985769;28;20054;-91
2021/01/04 03:34:54;;;;;;;10.73;7.65;;;;;;;0.90;100.00;100858.44;4972280;28;20152;-90
2021/01/04 03:37:21;;;;;;;10.48;7.78;;;;;;;0.85;100.00;100863.97;4975542;28;20117;-91
2021/01/04 03:39:47;;;;;;;11.02;7.95;;;;;;;0.83;100.00;100866.38;4980456;28;20057;-91
2021/01/04 03:42:14;;;;;;;12.05;7.97;;;;;;;0.90;100.00;100863.50;4980022;28;20039;-91
2021/01/04 03:44:41;;;;;;;10.55;7.40;;;;;;;0.96;100.00;100868.06;4983656;28;20055;-91
2021/01/04 03:47:07;;;;;;;11.50;8.77;;;;;;;0.34;100.00;100862.16;4989388;28;20058;-91
2021/01/04 03:49:36;;;;;;;11.40;8.13;;;;;;;0.40;100.00;100863.44;4984942;28;20043;-91
2021/01/04 03:52:02;;;;;;;10.88;7.65;;;;;;;0.72;100.00;100860.59;4979985;28;20080;-90
2021/01/04 03:54:32;;;;;;;12.65;8.55;;;;;;;0.35;100.00;100854.72;4978613;28;20547;-89
2021/01/04 03:56:59;;;;;;;11.27;7.63;;;;;;;0.68;100.00;100845.19;4957239;28;20081;-89
2021/01/04 03:59:25;;;;;;;12.57;8.30;;;;;;;0.55;100.00;100852.66;4978402;28;20050;-90
2021/01/04 04:01:56;;;;;;;13.60;8.35;;;;;;;0.67;100.00;100849.34;4976847;28;20030;-90
2021/01/04 04:04:24;;;;;;;12.10;7.80;;;;;;;0.78;100.00;100850.06;4982560;28;20058;-90
2021/01/04 04:06:56;;;;;;;9.70;7.38;;;;;;;0.56;100.00;100849.41;4984248;28;20058;-90
2021/01/04 04:09:27;;;;;;;10.35;7.15;;;;;;;0.68;100.00;100841.00;4979518;28;20077;-89
2021/01/04 04:11:54;;;;;;;12.20;7.85;;;;;;;0.92;100.00;100845.94;4981008;28;20050;-89
2021/01/04 04:14:20;;;;;;;9.25;6.90;;;;;;;0.82;100.00;100846.97;4993175;28;20118;-90
2021/01/04 04:16:48;;;;;;;11.30;6.75;;;;;;;0.87;100.00;100844.75;4981634;28;20054;-87
2021/01/04 04:19:16;;;;;;;11.00;6.88;;;;;;;0.79;100.00;100846.78;4975767;28;20042;-88
2021/01/04 04:21:49;;;;;;;11.73;7.47;;;;;;;0.67;100.00;100845.94;4978266;28;20058;-89
2021/01/04 04:24:15;;;;;;;10.43;7.53;;;;;;;0.71;100.00;100847.91;4981568;28;20524;-89
2021/01/04 04:26:42;;;;;;;11.13;7.57;;;;;;;0.84;100.00;100854.66;4976695;28;20054;-87
2021/01/04 04:29:08;;;;;;;11.30;8.15;;;;;;;0.63;100.00;100847.38;4978800;28;20061;-88
2021/01/04 04:31:41;;;;;;;10.57;6.95;;;;;;;0.91;100.00;100852.63;4985107;28;20426;-88
2021/01/04 04:34:08;;;;;;;11.35;8.18;;;;;;;0.64;100.00;100854.16;4981656;28;20511;-89
2021/01/04 04:36:34;;;;;;;10.25;7.50;;;;;;;0.84;100.00;100850.50;4978419;28;20047;-90
2021/01/04 04:39:01;;;;;;;10.48;7.30;;;;;;;1.13;100.00;100846.50;4979545;28;20064;-86
2021/01/04 04:41:35;;;;;;;10.10;7.22;;;;;;;0.93;99.70;100852.75;4992138;28;20054;-86
2021/01/04 04:44:20;;;;;;;9.95;6.82;;;;;;;1.07;99.92;100856.19;4968601;28;20503;-86
2021/01/04 04:46:55;;;;;;;10.38;7.25;;;;;;;1.07;100.00;100857.06;4980962;28;20054;-86
2021/01/04 04:49:53;;;;;;;9.75;7.18;;;;;;;0.93;100.00;100860.31;4975384;28;20246;-86
2021/01/04 04:52:46;;;;;;;9.65;6.88;;;;;;;0.75;100.00;100863.34;4963403;28;20531;-85
2021/01/04 04:55:30;;;;;;;11.45;7.05;;;;;;;0.88;100.00;100854.06;4958216;28;20046;-86
2021/01/04 04:58:35;;;;;;;9.75;7.00;;;;;;;0.86;100.00;100873.25;4968603;28;20047;-86
2021/01/04 05:01:30;;;;;;;12.57;6.95;;;;;;;1.00;100.00;100862.44;4965723;28;20046;-86
2021/01/04 05:04:11;;;;;;;10.57;7.00;;;;;;;0.59;100.00;100870.63;4970755;28;20046;-87
2021/01/04 05:06:46;;;;;;;10.43;7.07;;;;;;;0.54;100.00;100868.56;4966989;28;20051;-86
2021/01/04 05:09:19;;;;;;;13.15;7.80;;;;;;;0.27;100.00;100870.94;4981673;28;20047;-85
2021/01/04 05:12:05;;;;;;;11.43;7.28;;;;;;;0.41;100.00;100862.69;4979442;28;20047;-85
2021/01/04 05:14:38;;;;;;;12.73;7.60;;;;;;;0.57;100.00;100867.13;4976478;28;20827;-85
2021/01/04 05:17:41;;;;;;;9.07;6.50;;;;;;;0.45;100.00;100876.38;4973971;28;20082;-86
2021/01/04 05:20:45;;;;;;;11.18;6.70;;;;;;;0.48;100.00;100879.97;4951492;28;20061;-86
2021/01/04 05:23:34;;;;;;;8.27;6.53;;;;;;;0.63;100.00;100881.78;4971892;28;20057;-87
2021/01/04 05:26:35;;;;;;;8.70;6.20;;;;;;;0.61;100.00;100878.31;4980134;28;20423;-86
2021/01/04 05:29:41;;;;;;;10.05;6.80;;;;;;;0.71;100.00;100885.72;4969601;28;20060;-85
2021/01/04 05:32:38;;;;;;;10.02;6.57;;;;;;;0.64;100.00;100878.50;4966974;28;20479;-86
2021/01/04 05:35:11;;;;;;;8.07;6.65;;;;;;;0.52;100.00;100878.53;4972917;28;20062;-86
2021/01/04 05:37:57;;;;;;;11.85;6.40;;;;;;;0.62;100.00;100877.53;4974375;28;20058;-86
2021/01/04 05:40:42;;;;;;;8.55;6.30;;;;;;;0.62;100.00;100872.50;4989639;28;20121;-85
2021/01/04 05:43:11;;;;;;;8.65;6.13;;;;;;;0.93;100.00;100873.78;4965301;28;20134;-86
2021/01/04 05:45:40;;;;;;;9.95;7.00;;;;;;;0.64;100.00;100868.41;4980799;28;20046;-86
2021/01/04 05:48:32;;;;;;;11.15;6.78;;;;;;;0.36;100.00;100870.69;4975288;28;20443;-86
2021/01/04 05:51:28;;;;;;;8.55;5.95;;;;;;;0.66;100.00;100870.28;4975185;28;20054;-86
2021/01/04 05:53:55;;;;;;;8.98;6.40;;;;;;;0.63;100.00;100877.63;4957308;28;20394;-86
2021/01/04 05:56:25;;;;;;;9.77;6.20;;;;;;;0.64;100.00;100876.84;4975338;28;20050;-86
2021/01/04 05:59:03;;;;;;;8.40;6.28;;;;;;;0.52;100.00;100865.94;4990562;28;20042;-86
2021/01/04 06:01:30;;;;;;;9.75;7.28;;;;;;;0.46;100.00;100876.50;4978555;28;20050;-85
2021/01/04 06:04:06;;;;;;;7.75;5.80;;;;;;;0.97;100.00;100879.88;4972887;28;20739;-86
2021/01/04 06:06:38;;;;;;;7.00;5.40;;;;;;;1.04;100.00;100881.19;4977967;28;20051;-85
2021/01/04 06:09:25;;;;;;;7.15;5.72;;;;;;;1.22;99.25;100873.19;4984038;28;20058;-86
2021/01/04 06:11:53;;;;;;;;;;;;;;;0.98;99.07;100880.00;4978160;28;20054;-87
2021/01/04 06:14:19;;;;;;;8.68;5.50;;;;;;;1.00;99.71;100878.47;4985971;28;19922;-85
2021/01/04 06:16:47;;;;;;;8.20;5.60;;;;;;;1.23;99.22;100871.53;4980323;28;20050;-86
2021/01/04 06:19:22;;;;;;;9.00;5.95;;;;;;;0.92;100.00;100879.59;4975793;28;20779;-86
2021/01/04 06:21:52;;;;;;;;;;;;;;;0.64;100.00;100869.28;4979518;28;20049;-86
2021/01/04 06:24:31;;;;;;;8.30;6.38;;;;;;;0.72;100.00;100875.72;4986802;28;19944;-86
2021/01/04 06:27:06;;;;;;;12.30;7.82;;;;;;;0.43;100.00;100875.41;4977832;28;20073;-86
2021/01/04 06:29:44;;;;;;;11.10;7.57;;;;;;;0.56;100.00;100874.59;4986151;28;20137;-85
2021/01/04 06:32:32;;;;;;;10.00;6.95;;;;;;;0.59;100.00;100879.84;4980488;28;20053;-86
2021/01/04 06:35:17;;;;;;;9.73;6.68;;;;;;;0.55;100.00;100880.38;4958986;28;20136;-86
2021/01/04 06:37:44;;;;;;;11.57;6.85;;;;;;;0.49;100.00;100871.63;4969519;28;20056;-85
2021/01/04 06:40:42;;;;;;;11.77;7.53;;;;;;;0.66;100.00;100884.53;4969133;28;20105;-86
2021/01/04 06:43:18;;;;;;;12.52;7.80;;;;;;;0.61;100.00;100871.63;4971388;28;20059;-87
2021/01/04 06:45:55;;;;;;;10.45;7.40;;;;;;;0.79;100.00;100876.13;4977718;28;20051;-85
2021/01/04 06:48:33;;;;;;;11.48;8.00;;;;;;;0.74;100.00;100884.28;4978632;28;20063;-84
2021/01/04 06:51:42;;;;;;;13.95;8.40;;;;;;;0.44;100.00;100882.19;4981148;28;20080;-85
2021/01/04 06:54:18;;;;;;;14.07;8.23;;;;;;;0.70;100.00;100886.50;4976137;28;20109;-86
2021/01/04 06:57:06;;;;;;;14.60;8.73;;;;;;;0.50;100.00;100895.19;4974006;28;20053;-85
2021/01/04 06:59:57;;;;;;;11.38;7.97;;;;;;;0.85;100.00;100897.59;4978899;28;20471;-85
2021/01/04 07:02:41;;;;;;;17.95;9.45;;;;;;;0.38;100.00;100895.22;4976040;28;20046;-86
2021/01/04 07:05:40;;;;;;;14.50;8.32;;;;;;;0.44;100.00;100903.19;4977564;28;20050;-84
2021/01/04 07:08:34;;;;;;;16.48;9.88;;;;;;;0.66;100.00;100908.09;4953892;28;20042;-85
2021/01/04 07:11:32;;;;;;;13.93;8.52;;;;;;;0.43;100.00;100909.00;4977936;28;20042;-85
2021/01/04 07:14:16;;;;;;;16.20;9.63;;;;;;;0.56;100.00;100903.19;4964706;28;20062;-85
2021/01/04 07:16:42;;;;;;;15.88;8.82;;;;;;;0.70;100.00;100902.50;4980195;28;20443;-84
2021/01/04 07:19:50;;;;;;;14.02;8.80;;;;;;;0.57;100.00;100904.94;4981612;28;20450;-85
2021/01/04 07:22:37;;;;;;;17.75;9.90;;;;;;;0.73;100.00;100906.84;4977875;28;20418;-85
2021/01/04 07:25:31;;;;;;;22.45;10.25;;;;;;;0.45;100.00;100909.97;4955432;28;20051;-86
2021/01/04 07:28:22;;;;;;;15.60;10.07;;;;;;;0.26;100.00;100912.00;4982050;28;20050;-84
2021/01/04 07:30:56;;;;;;;16.50;8.85;;;;;;;0.79;100.00;100914.84;4979337;28;20046;-85
2021/01/04 07:33:40;;;;;;;17.02;9.90;;;;;;;0.73;100.00;100912.75;4981997;28;20051;-85
2021/01/04 07:36:18;;;;;;;16.45;10.13;;;;;;;0.46;100.00;100906.72;4954595;28;20508;-85
2021/01/04 07:39:14;;;;;;;21.10;10.73;;;;;;;0.40;100.00;100918.88;5000056;28;20109;-85
2021/01/04 07:41:47;;;;;;;17.33;10.60;;;;;;;0.39;100.00;100922.16;4989979;28;20122;-85
2021/01/04 07:44:33;;;;;;;16.90;10.35;;;;;;;0.60;100.00;100922.78;4986494;28;20459;-88
2021/01/04 07:47:24;;;;;;;20.88;10.55;;;;;;;0.55;100.00;100916.53;4978443;28;20050;-86
2021/01/04 07:50:10;;;;;;;14.93;9.90;;;;;;;0.79;100.00;100927.44;4963309;28;20054;-87
2021/01/04 07:53:04;;;;;;;13.38;7.53;;;;;;;0.83;100.00;100934.41;4979632;28;20541;-86
2021/01/04 07:56:01;;;;;;;15.60;9.30;;;;;;;0.80;100.00;100939.28;4982854;28;20068;-85
2021/01/04 07:58:58;;;;;;;14.63;8.88;;;;;;;0.70;100.00;100935.25;4976681;28;20050;-86
2021/01/04 08:01:33;;;;;;;;;;;;;;;0.89;100.00;100939.03;4975673;28;20078;-87
2021/01/04 08:04:36;;;;;;;14.02;7.95;;;;;;;0.58;100.00;100936.91;4980113;28;19917;-87
2021/01/04 08:07:19;;;;;;;16.10;9.65;;;;;;;0.70;100.00;100950.38;4972417;28;20047;-86
2021/01/04 08:10:00;;;;;;;13.68;9.00;;;;;;;0.99;100.00;100938.88;4982442;28;20432;-86
2021/01/04 08:12:52;;;;;;;15.80;9.10;;;;;;;0.58;100.00;100946.13;4975001;28;20112;-87
2021/01/04 08:15:57;;;;;;;18.10;10.13;;;;;;;0.49;100.00;100939.66;4976801;28;20046;-85
2021/01/04 08:18:25;;;;;;;17.05;9.85;;;;;;;0.60;100.00;100940.44;4929701;28;20520;-85
2021/01/04 08:21:05;;;;;;;20.05;10.05;;;;;;;0.48;100.00;100944.59;4965096;28;20077;-85
2021/01/04 08:23:45;;;;;;;16.35;9.93;;;;;;;0.43;100.00;100948.44;4974369;28;20503;-83
2021/01/04 08:26:30;;;;;;;16.42;9.80;;;;;;;1.00;100.00;100950.69;4972029;28;21914;-85
2021/01/04 08:29:08;;;;;;;16.05;9.35;;;;;;;0.67;100.00;100944.22;4980333;28;20046;-85
2021/01/04 08:31:34;;;;;;;15.80;9.55;;;;;;;0.50;100.00;100950.59;4968219;28;20058;-84
2021/01/04 08:34:05;;;;;;;16.23;9.88;;;;;;;0.56;100.00;100945.16;4977886;28;20054;-84
2021/01/04 08:36:46;;;;;;;16.52;10.07;;;;;;;0.71;100.00;100947.06;4976061;28;20050;-85
2021/01/04 08:39:28;;;;;;;15.88;9.85;;;;;;;0.94;100.00;100948.66;4981657;28;20127;-84
2021/01/04 08:42:05;;;;;;;19.67;9.98;;;;;;;0.89;100.00;100949.97;4991553;28;20126;-86
2021/01/04 08:44:33;;;;;;;12.43;6.95;;;;;;;0.83;100.00;100951.19;4972741;28;20057;-87
2021/01/04 08:47:17;;;;;;;14.65;8.90;;;;;;;1.28;100.00;100955.97;4974607;28;20066;-86
2021/01/04 08:49:47;;;;;;;15.80;9.35;;;;;;;0.64;100.00;100952.44;4980619;28;20050;-86
2021/01/04 08:52:16;;;;;;;16.25;9.63;;;;;;;0.63;100.00;100950.69;4968445;28;20058;-87
2021/01/04 08:54:42;;;;;;;17.23;9.85;;;;;;;0.64;100.00;100959.13;4956532;28;20050;-88
2021/01/04 08:57:19;;;;;;;19.00;10.80;;;;;;;0.74;100.00;100961.53;4971994;28;20061;-85
2021/01/04 08:59:58;;;;;;;17.90;10.50;;;;;;;0.58;100.00;100958.72;4975127;28;20046;-87
2021/01/04 09:02:42;;;;;;;14.98;9.52;;;;;;;0.89;100.00;100961.72;4982391;28;20050;-87
2021/01/04 09:05:15;;;;;;;19.15;11.18;;;;;;;0.46;100.00;100956.19;4985686;28;20072;-85
2021/01/04 09:07:50;;;;;;;15.90;10.35;;;;;;;0.54;100.00;100965.19;4976389;28;20043;-86
2021/01/04 09:10:20;;;;;;;19.90;10.63;;;;;;;0.83;100.00;100967.19;4978607;28;20053;-85
2021/01/04 09:13:28;;;;;;;17.40;9.85;;;;;;;0.91;100.00;100966.06;4966029;28;20118;-86
2021/01/04 09:15:56;;;;;;;21.75;11.10;;;;;;;0.38;100.00;100967.41;4972808;28;20050;-86
2021/01/04 09:18:32;;;;;;;15.88;9.77;;;;;;;0.68;100.00;100964.50;4967801;28;20431;-87
2021/01/04 09:21:42;;;;;;;17.08;11.38;;;;;;;0.61;100.00;100967.38;4979500;28;20031;-88
2021/01/04 09:24:28;;;;;;;15.23;9.68;;;;;;;0.99;100.00;100972.53;4979204;28;20069;-86
2021/01/04 09:27:00;;;;;;;16.42;10.55;;;;;;;0.55;100.00;100974.47;4982021;28;20050;-87
2021/01/04 09:29:36;;;;;;;15.45;10.02;;;;;;;0.87;100.00;100973.31;4971013;28;20782;-86
2021/01/04 09:32:11;;;;;;;18.02;10.32;;;;;;;0.79;100.00;100970.28;4971027;28;20085;-88
2021/01/04 09:34:38;;;;;;;;;;;;;;;0.70;100.00;100977.22;4973105;28;20055;-86
2021/01/04 09:37:19;;;;;;;;;;;;;;;0.70;100.00;100980.59;4971222;28;19926;-86
2021/01/04 09:39:45;;;;;;;19.25;10.05;;;;;;;0.34;100.00;100976.38;4974856;28;19926;-87
2021/01/04 09:42:23;;;;;;;17.58;11.05;;;;;;;0.82;100.00;100974.66;4975793;28;20054;-88
2021/01/04 09:44:52;;;;;;;19.33;10.80;;;;;;;0.64;100.00;100976.78;4965946;28;20396;-87
2021/01/04 09:47:28;;;;;;;16.98;10.75;;;;;;;0.74;100.00;100969.09;4980388;28;20862;-87
2021/01/04 09:50:01;;;;;;;19.40;10.73;;;;;;;0.50;100.00;100968.25;4969409;28;20043;-87
2021/01/04 09:52:46;;;;;;;17.20;10.77;;;;;;;0.72;100.00;100973.16;4964853;28;20051;-87
2021/01/04 09:55:14;;;;;;;19.98;11.30;;;;;;;1.09;100.00;100968.09;4965505;28;20050;-86
2021/01/04 09:57:43;;;;;;;16.67;10.82;;;;;;;1.17;100.00;100970.38;4959670;28;20065;-86
2021/01/04 10:00:20;;;;;;;16.75;10.27;;;;;;;1.20;100.00;100968.06;4979644;28;20047;-86
2021/01/04 10:02:47;;;;;;;18.63;11.20;;;;;;;1.02;100.00;100972.75;4976654;28;20053;-86
2021/01/04 10:05:15;;;;;;;16.83;10.13;;;;;;;0.87;100.00;100974.19;4979185;28;20055;-86
2021/01/04 10:07:43;;;;;;;16.30;10.30;;;;;;;0.52;100.00;100964.22;4983867;28;21505;-86
2021/01/04 10:10:13;;;;;;;19.95;11.05;;;;;;;0.61;100.00;100963.97;5011430;28;20261;-87
2021/01/04 10:12:40;;;;;;;18.80;11.65;;;;;;;0.90;100.00;100965.97;4985372;28;20046;-87
2021/01/04 10:15:18;;;;;;;16.95;10.48;;;;;;;1.03;100.00;100966.06;4986906;28;20217;-86
2021/01/04 10:18:04;;;;;;;16.20;10.50;;;;;;;0.87;100.00;100970.81;4985197;28;20503;-88
2021/01/04 10:20:40;;;;;;;17.65;10.93;;;;;;;1.09;100.00;100961.41;4987191;28;20047;-85
2021/01/04 10:23:15;;;;;;;20.08;11.65;;;;;;;0.66;100.00;100958.47;4977622;28;20085;-86
2021/01/04 10:25:52;;;;;;;16.25;11.00;;;;;;;0.59;100.00;100955.41;4975892;28;20055;-86
2021/01/04 10:28:22;;;;;;;17.15;10.70;;;;;;;1.09;100.00;100956.38;4974569;28;20086;-86
2021/01/04 10:31:05;;;;;;;19.15;10.38;;;;;;;1.10;100.00;100954.72;4998764;28;20077;-86
2021/01/04 10:33:39;;;;;;;16.38;10.50;;;;;;;1.06;100.00;100957.78;4974313;28;20050;-87
2021/01/04 10:36:14;;;;;;;17.52;10.45;;;;;;;1.02;100.00;100954.22;4994927;28;20082;-87
2021/01/04 10:38:50;;;;;;;17.88;11.00;;;;;;;1.03;100.00;100955.97;4994930;28;20054;-86
2021/01/04 10:41:17;;;;;;;18.85;10.43;;;;;;;1.22;100.00;100953.03;4984837;28;20443;-87
2021/01/04 10:43:47;;;;;;;19.52;10.68;;;;;;;0.82;100.00;100947.78;4980703;28;20058;-87
2021/01/04 10:46:33;;;;;;;16.23;10.93;;;;;;;0.99;100.00;100947.31;4998869;28;20042;-87
2021/01/04 10:49:07;;;;;;;16.42;10.25;;;;;;;1.05;100.00;100943.44;4977065;28;20074;-85
2021/01/04 10:51:37;;;;;;;16.15;11.02;;;;;;;1.21;100.00;100943.72;4976160;28;20054;-87
2021/01/04 10:54:17;;;;;;;19.80;10.85;;;;;;;0.84;100.00;100943.75;4982275;28;20256;-88
2021/01/04 10:56:56;;;;;;;18.10;10.63;;;;;;;1.14;100.00;100949.97;4973327;28;20056;-85
2021/01/04 10:59:39;;;;;;;16.38;10.43;;;;;;;1.04;100.00;100951.78;4977589;28;20114;-88
2021/01/04 11:02:07;;;;;;;19.10;10.90;;;;;;;1.42;100.00;100949.31;4983685;28;20138;-89
2021/01/04 11:04:35;;;;;;;19.45;10.68;;;;;;;0.75;100.00;100936.44;4972802;28;20520;-88
2021/01/04 11:07:14;;;;;;;18.88;11.15;;;;;;;1.28;100.00;100944.22;4982435;28;20050;-87
2021/01/04 11:09:42;;;;;;;21.95;12.10;;;;;;;0.96;99.45;100942.03;4985983;28;20050;-87
2021/01/04 11:12:20;;;;;;;19.33;10.68;;;;;;;0.84;100.00;100950.44;5001327;23;20046;-50
2021/01/04 11:14:53;;;;;;;21.70;11.90;;;;;;;0.60;100.00;100945.47;4977207;28;20117;-48
2021/01/04 11:17:30;;;;;;;18.98;12.30;;;;;;;0.96;100.00;100948.75;4976311;28;20043;-45
2021/01/04 11:20:12;;;;;;;21.05;11.98;;;;;;;0.45;100.00;100946.91;4979463;28;20050;-49
2021/01/04 11:22:38;;;;;;;22.08;12.60;;;;;;;0.50;100.00;100950.59;4968356;28;20125;-46
2021/01/04 11:25:05;;;;;;;25.23;13.68;;;;;;;0.51;100.00;100949.88;4968567;28;20078;-44
2021/01/04 11:27:32;;;;;;;22.52;12.52;;;;;;;0.69;100.00;100951.16;4968650;28;20117;-45
2021/01/04 11:29:58;;;;;;;20.67;11.52;;;;;;;1.06;100.00;100951.09;4968214;28;20070;-45
2021/01/04 11:32:25;;;;;;;21.27;12.30;;;;;;;0.66;100.00;100939.97;4967935;28;20051;-46
2021/01/04 11:34:54;;;;;;;20.42;11.88;;;;;;;0.98;100.00;100943.03;4969035;28;20054;-46
2021/01/04 11:37:23;;;;;;;22.15;13.43;;;;;;;1.15;100.00;100940.78;4966172;28;20081;-47
2021/01/04 11:39:50;;;;;;;22.75;11.82;;;;;;;1.30;100.00;100938.41;4966330;28;20070;-44
2021/01/04 11:42:17;;;;;;;19.83;11.52;;;;;;;1.07;100.00;100945.31;4966788;28;20136;-47
2021/01/04 11:44:44;;;;;;;18.95;11.35;;;;;;;1.34;100.00;100936.22;4968303;28;20059;-45
2021/01/04 11:47:15;;;;;;;20.80;11.85;;;;;;;1.43;100.00;100941.84;4966074;28;20047;-48
2021/01/04 11:49:42;;;;;;;22.65;13.15;;;;;;;1.08;100.00;100931.94;4964104;28;20394;-51
2021/01/04 11:52:08;;;;;;;19.67;10.98;;;;;;;1.20;100.00;100932.75;4965067;28;20055;-47
2021/01/04 11:54:34;;;;;;;20.50;11.68;;;;;;;1.33;100.00;100936.94;4970012;28;20086;-49
2021/01/04 11:57:01;;;;;;;22.85;13.02;;;;;;;1.15;100.00;100935.72;4968348;28;20412;-46
2021/01/04 11:59:27;;;;;;;21.17;11.80;;;;;;;1.53;99.52;100938.28;4964802;28;20093;-48
2021/01/04 12:01:54;;;;;;;20.50;11.98;;;;;;;1.46;99.15;100936.13;4971017;28;20054;-47
2021/01/04 12:04:21;;;;;;;19.80;12.13;;;;;;;0.91;100.00;100937.47;4969840;28;20056;-49
2021/01/04 12:06:48;;;;;;;19.80;12.07;;;;;;;0.80;100.00;100941.78;4970712;28;20105;-43
2021/01/04 12:09:15;;;;;;;19.55;11.73;;;;;;;0.96;100.00;100937.00;4969474;28;20104;-50
2021/01/04 12:11:42;;;;;;;20.02;11.63;;;;;;;1.55;99.18;100943.44;4970564;28;20117;-48